createdAt,value
2023-04-18T00:00:04.238Z,102702.13
2023-04-18T00:03:05.921Z,102698.56
2023-04-18T00:06:07.612Z,102699.44
2023-04-18T00:09:09.264Z,102697.66
2023-04-18T00:12:11.464Z,102694.09
2023-04-18T00:15:13.704Z,102698.47
2023-04-18T00:18:18.037Z,102696.66
2023-04-18T00:21:19.745Z,102698.41
2023-04-18T00:24:21.467Z,102697.53
2023-04-18T00:27:23.087Z,102694.00
2023-04-18T00:30:24.737Z,102703.69
2023-04-18T00:33:26.462Z,102698.38
2023-04-18T00:36:28.043Z,102699.25
2023-04-18T00:39:29.642Z,102697.47
2023-04-18T00:42:31.933Z,102690.44
2023-04-18T00:45:33.462Z,102702.72
2023-04-18T00:48:35.212Z,102694.78
2023-04-18T00:51:37.012Z,102692.19
2023-04-18T00:54:39.810Z,102694.88
2023-04-18T00:57:41.979Z,102692.25
2023-04-18T01:00:43.850Z,102696.69
2023-04-18T01:03:45.583Z,102695.88
2023-04-18T01:06:47.244Z,102698.50
2023-04-18T01:09:49.313Z,102687.09
2023-04-18T01:12:50.891Z,102694.16
2023-04-18T01:15:54.284Z,102695.03
2023-04-18T01:18:56.619Z,102698.56
2023-04-18T01:21:58.157Z,102695.06
2023-04-18T01:24:59.786Z,102688.91
2023-04-18T01:28:01.454Z,102695.97
2023-04-18T01:31:03.076Z,102697.75
2023-04-18T01:34:05.735Z,102688.13
2023-04-18T01:37:07.342Z,102690.78
2023-04-18T01:40:09.380Z,102696.97
2023-04-18T01:43:10.960Z,102687.34
2023-04-18T01:46:12.703Z,102690.03
2023-04-18T01:49:14.314Z,102688.31
2023-04-18T01:52:16.197Z,102684.88
2023-04-18T01:55:17.819Z,102684.03
2023-04-18T01:58:23.159Z,102691.13
2023-04-18T02:01:24.864Z,102698.19
2023-04-18T02:04:26.664Z,102693.00
2023-04-18T02:07:28.254Z,102692.16
2023-04-18T02:10:29.882Z,102691.31
2023-04-18T02:13:31.462Z,102688.72
2023-04-18T02:16:34.110Z,102689.59
2023-04-18T02:19:35.810Z,102683.47
2023-04-18T02:22:38.328Z,102687.88
2023-04-18T02:25:40.054Z,102688.75
2023-04-18T02:28:41.603Z,102680.00
2023-04-18T02:31:43.242Z,102684.41
2023-04-18T02:34:44.796Z,102680.00
2023-04-18T02:37:46.502Z,102687.97
2023-04-18T02:40:48.049Z,102681.78
2023-04-18T02:43:49.729Z,102679.19
2023-04-18T02:46:51.296Z,102689.75
2023-04-18T02:49:52.907Z,102694.16
2023-04-18T02:52:54.616Z,102685.41
2023-04-18T02:55:56.147Z,102687.13
2023-04-18T02:58:57.706Z,102688.03
2023-04-18T03:01:59.305Z,102686.28
2023-04-18T03:05:00.959Z,102694.22
2023-04-18T03:08:02.508Z,102692.44
2023-04-18T03:11:04.111Z,102702.19
2023-04-18T03:14:05.724Z,102699.53
2023-04-18T03:17:07.447Z,102699.53
2023-04-18T03:20:10.440Z,102696.91
2023-04-18T03:23:11.982Z,102696.00
2023-04-18T03:26:13.859Z,102702.19
2023-04-18T03:29:15.829Z,102705.66
2023-04-18T03:32:18.390Z,102710.13
2023-04-18T03:35:20.019Z,102710.16
2023-04-18T03:38:21.607Z,102705.78
2023-04-18T03:41:23.857Z,102713.75
2023-04-18T03:44:25.446Z,102718.16
2023-04-18T03:47:27.023Z,102723.50
2023-04-18T03:50:28.638Z,102719.97
2023-04-18T03:53:30.284Z,102724.38
2023-04-18T03:56:31.833Z,102732.28
2023-04-18T03:59:33.345Z,102728.81
2023-04-18T04:02:35.036Z,102733.25
2023-04-18T04:05:37.175Z,102721.81
2023-04-18T04:08:38.798Z,102728.84
2023-04-18T04:11:40.600Z,102727.09
2023-04-18T04:14:42.202Z,102728.84
2023-04-18T04:17:43.777Z,102732.41
2023-04-18T04:20:46.590Z,102728.91
2023-04-18T04:23:48.213Z,102729.84
2023-04-18T04:26:50.834Z,102734.25
2023-04-18T04:29:52.520Z,102737.84
2023-04-18T04:32:56.377Z,102735.25
2023-04-18T04:35:58.044Z,102742.38
2023-04-18T04:38:59.646Z,102739.72
2023-04-18T04:42:04.462Z,102747.69
2023-04-18T04:45:08.216Z,102750.31
2023-04-18T04:48:10.407Z,102753.91
2023-04-18T04:51:12.007Z,102752.19
2023-04-18T04:54:13.985Z,102761.88
2023-04-18T04:57:15.903Z,102763.66
2023-04-18T05:00:20.971Z,102764.53
2023-04-18T05:03:22.818Z,102758.41
2023-04-18T05:06:24.746Z,102761.06
2023-04-18T05:09:26.354Z,102765.44
2023-04-18T05:12:27.938Z,102771.56
2023-04-18T05:15:29.784Z,102765.38
2023-04-18T05:18:33.079Z,102768.00
2023-04-18T05:21:36.459Z,102765.38
2023-04-18T05:24:38.046Z,102775.78
2023-04-18T05:27:39.973Z,102781.81
2023-04-18T05:30:41.766Z,102773.84
2023-04-18T05:33:43.355Z,102771.16
2023-04-18T05:36:45.002Z,102772.84
2023-04-18T05:39:46.621Z,102778.88
2023-04-18T05:42:48.190Z,102777.03
2023-04-18T05:45:52.217Z,102779.59
2023-04-18T05:48:53.892Z,102778.63
2023-04-18T05:51:56.551Z,102783.84
2023-04-18T05:54:58.094Z,102779.34
2023-04-18T05:57:59.811Z,102782.78
2023-04-18T06:01:01.940Z,102787.97
2023-04-18T06:04:03.914Z,102784.34
2023-04-18T06:07:05.851Z,102789.59
2023-04-18T06:10:11.107Z,102782.44
2023-04-18T06:13:12.741Z,102784.13
2023-04-18T06:16:14.582Z,102782.28
2023-04-18T06:19:16.255Z,102788.41
2023-04-18T06:22:17.933Z,102796.16
2023-04-18T06:25:19.720Z,102797.69
2023-04-18T06:28:21.335Z,102799.38
2023-04-18T06:31:23.012Z,102798.47
2023-04-18T06:34:24.625Z,102799.25
2023-04-18T06:37:26.394Z,102800.94
2023-04-18T06:40:28.293Z,102793.81
2023-04-18T06:43:29.799Z,102799.88
2023-04-18T06:46:32.514Z,102793.53
2023-04-18T06:49:34.041Z,102803.03
2023-04-18T06:52:40.465Z,102795.81
2023-04-18T06:55:42.079Z,102793.84
2023-04-18T06:58:43.690Z,102800.63
2023-04-18T07:01:45.683Z,102805.75
2023-04-18T07:04:47.370Z,102807.25
2023-04-18T07:07:49.065Z,102812.38
2023-04-18T07:10:50.608Z,102814.81
2023-04-18T07:13:52.420Z,102801.28
2023-04-18T07:16:54.083Z,102811.69
2023-04-18T07:19:55.919Z,102804.38
2023-04-18T07:22:57.469Z,102811.16
2023-04-18T07:26:01.643Z,102810.00
2023-04-18T07:29:03.397Z,102807.06
2023-04-18T07:32:06.206Z,102805.84
2023-04-18T07:35:10.072Z,102806.34
2023-04-18T07:38:12.639Z,102800.69
2023-04-18T07:41:14.251Z,102821.59
2023-04-18T07:44:15.997Z,102816.97
2023-04-18T07:47:22.392Z,102809.78
2023-04-18T07:50:24.824Z,102815.88
2023-04-18T07:53:26.746Z,102820.13
2023-04-18T07:56:28.348Z,102818.09
2023-04-18T07:59:30.048Z,102809.97
2023-04-18T08:02:31.907Z,102821.19
2023-04-18T08:05:33.686Z,102817.34
2023-04-18T08:08:35.389Z,102825.97
2023-04-18T08:11:37.051Z,102821.28
2023-04-18T08:14:38.653Z,102828.06
2023-04-18T08:17:42.732Z,102832.41
2023-04-18T08:20:44.345Z,102821.78
2023-04-18T08:23:46.573Z,102827.97
2023-04-18T08:26:48.143Z,102837.66
2023-04-18T08:29:49.791Z,102825.25
2023-04-18T08:32:51.838Z,102840.16
2023-04-18T08:35:53.503Z,102838.25
2023-04-18T08:38:55.171Z,102825.81
2023-04-18T08:42:00.666Z,102839.19
2023-04-18T08:45:02.849Z,102823.94
2023-04-18T08:48:04.890Z,102828.06
2023-04-18T08:51:06.491Z,102828.56
2023-04-18T08:54:09.526Z,102827.25
2023-04-18T08:57:12.647Z,102822.69
2023-04-18T09:00:14.690Z,102808.47
2023-04-18T09:03:16.813Z,102812.63
2023-04-18T09:06:19.086Z,102818.75
2023-04-18T09:09:27.590Z,102829.41
2023-04-18T09:12:29.682Z,102819.66
2023-04-18T09:15:31.607Z,102817.81
2023-04-18T09:18:33.350Z,102812.13
2023-04-18T09:21:36.088Z,102823.16
2023-04-18T09:24:37.648Z,102816.59
2023-04-18T09:27:39.172Z,102806.47
2023-04-18T09:30:42.303Z,102814.00
2023-04-18T09:33:56.776Z,102819.81
2023-04-18T09:37:08.219Z,102812.75
2023-04-18T09:40:17.989Z,102813.66
2023-04-18T09:43:20.808Z,102803.81
2023-04-18T09:46:22.827Z,102811.31
2023-04-18T09:49:24.472Z,102801.06
2023-04-18T09:52:26.098Z,102804.81
2023-04-18T09:55:29.496Z,102811.41
2023-04-18T09:58:33.079Z,102801.47
2023-04-18T10:01:35.861Z,102801.09
2023-04-18T10:04:37.818Z,102800.47
2023-04-18T10:07:40.407Z,102810.56
2023-04-18T10:10:42.010Z,102810.31
2023-04-18T10:13:47.778Z,102825.06
2023-04-18T10:16:50.611Z,102822.97
2023-04-18T10:20:09.930Z,102825.09
2023-04-18T10:23:39.093Z,102828.41
2023-04-18T10:26:47.294Z,102822.03
2023-04-18T10:29:53.330Z,102822.59
2023-04-18T10:32:55.546Z,102823.94
2023-04-18T10:36:03.533Z,102820.69
2023-04-18T10:39:22.797Z,102826.16
2023-04-18T10:42:52.064Z,102817.47
2023-04-18T10:46:23.896Z,102827.22
2023-04-18T10:49:32.960Z,102813.50
2023-04-18T10:52:34.907Z,102818.41
2023-04-18T10:55:37.828Z,102810.78
2023-04-18T10:58:42.032Z,102814.78
2023-04-18T11:01:47.326Z,102813.25
2023-04-18T11:05:04.746Z,102808.03
2023-04-18T11:08:23.405Z,102806.31
2023-04-18T11:11:25.080Z,102800.81
2023-04-18T11:14:26.696Z,102804.13
2023-04-18T11:17:32.756Z,102795.16
2023-04-18T11:20:39.050Z,102798.72
2023-04-18T11:23:41.264Z,102800.66
2023-04-18T11:26:44.346Z,102797.22
2023-04-18T11:29:52.797Z,102801.03
2023-04-18T11:32:56.090Z,102783.47
2023-04-18T11:36:00.691Z,102794.97
2023-04-18T11:39:02.266Z,102792.56
2023-04-18T11:42:04.056Z,102791.88
2023-04-18T11:45:13.585Z,102793.63
2023-04-18T11:48:15.176Z,102794.53
2023-04-18T11:51:38.389Z,102796.28
2023-04-18T11:54:44.649Z,102798.00
2023-04-18T11:57:55.924Z,102790.00
2023-04-18T12:00:57.646Z,102790.88
2023-04-18T12:04:03.924Z,102796.03
2023-04-18T12:07:05.876Z,102801.44
2023-04-18T12:10:09.062Z,102795.34
2023-04-18T12:13:11.967Z,102792.03
2023-04-18T12:16:13.645Z,102790.16
2023-04-18T12:19:15.475Z,102794.50
2023-04-18T12:22:17.043Z,102792.81
2023-04-18T12:25:27.138Z,102797.34
2023-04-18T12:28:29.300Z,102795.59
2023-04-18T12:31:30.997Z,102805.41
2023-04-18T12:34:32.614Z,102801.03
2023-04-18T12:37:34.242Z,102800.25
2023-04-18T12:40:36.061Z,102804.03
2023-04-18T12:43:37.582Z,102804.13
2023-04-18T12:46:39.164Z,102798.81
2023-04-18T12:49:40.868Z,102789.94
2023-04-18T12:52:42.472Z,102780.91
2023-04-18T12:55:44.120Z,102787.47
2023-04-18T12:58:45.709Z,102783.59
2023-04-18T13:01:47.350Z,102779.00
2023-04-18T13:04:51.424Z,102780.75
2023-04-18T13:07:58.585Z,102778.19
2023-04-18T13:11:06.663Z,102787.06
2023-04-18T13:14:08.193Z,102778.13
2023-04-18T13:17:09.789Z,102778.84
2023-04-18T13:20:12.608Z,102783.00
2023-04-18T13:23:14.183Z,102779.25
2023-04-18T13:26:15.818Z,102768.38
2023-04-18T13:29:17.469Z,102774.38
2023-04-18T13:32:19.042Z,102778.81
2023-04-18T13:35:20.603Z,102767.41
2023-04-18T13:38:22.172Z,102772.78
2023-04-18T13:41:24.301Z,102769.19
2023-04-18T13:44:26.000Z,102767.28
2023-04-18T13:47:27.690Z,102751.22
2023-04-18T13:50:29.329Z,102759.03
2023-04-18T13:53:31.241Z,102757.06
2023-04-18T13:56:32.986Z,102758.06
2023-04-18T13:59:34.533Z,102758.06
2023-04-18T14:02:36.153Z,102756.97
2023-04-18T14:05:38.196Z,102761.25
2023-04-18T14:08:41.128Z,102758.34
2023-04-18T14:11:43.297Z,102760.81
2023-04-18T14:14:44.816Z,102772.28
2023-04-18T14:17:46.419Z,102761.59
2023-04-18T14:20:48.633Z,102763.38
2023-04-18T14:23:52.682Z,102758.06
2023-04-18T14:26:54.803Z,102759.94
2023-04-18T14:29:56.365Z,102753.00
2023-04-18T14:32:57.917Z,102757.59
2023-04-18T14:36:01.117Z,102747.94
2023-04-18T14:39:03.462Z,102758.50
2023-04-18T14:42:05.357Z,102754.00
2023-04-18T14:45:08.648Z,102755.78
2023-04-18T14:48:10.432Z,102750.53
2023-04-18T14:51:12.365Z,102754.06
2023-04-18T14:54:13.916Z,102748.72
2023-04-18T14:57:15.533Z,102742.47
2023-04-18T15:00:17.355Z,102743.16
2023-04-18T15:03:18.977Z,102746.47
2023-04-18T15:06:20.996Z,102738.31
2023-04-18T15:09:22.746Z,102738.13
2023-04-18T15:12:24.381Z,102746.13
2023-04-18T15:15:26.001Z,102727.34
2023-04-18T15:18:27.705Z,102736.09
2023-04-18T15:21:29.274Z,102724.50
2023-04-18T15:24:31.770Z,102728.88
2023-04-18T15:27:33.366Z,102719.78
2023-04-18T15:30:35.008Z,102732.59
2023-04-18T15:33:36.551Z,102728.00
2023-04-18T15:36:38.399Z,102727.16
2023-04-18T15:39:40.064Z,102721.63
2023-04-18T15:42:41.846Z,102722.44
2023-04-18T15:45:44.624Z,102718.97
2023-04-18T15:48:46.331Z,102730.63
2023-04-18T15:51:47.989Z,102734.22
2023-04-18T15:54:52.065Z,102729.75
2023-04-18T15:57:53.808Z,102734.97
2023-04-18T16:00:56.055Z,102732.31
2023-04-18T16:03:57.763Z,102728.75
2023-04-18T16:06:59.511Z,102743.69
2023-04-18T16:10:03.037Z,102725.97
2023-04-18T16:13:04.788Z,102737.63
2023-04-18T16:16:07.007Z,102732.50
2023-04-18T16:19:08.622Z,102737.00
2023-04-18T16:22:12.704Z,102733.47
2023-04-18T16:25:14.784Z,102739.66
2023-04-18T16:28:16.396Z,102738.91
2023-04-18T16:31:18.473Z,102736.28
2023-04-18T16:34:20.161Z,102739.94
2023-04-18T16:37:21.842Z,102744.44
2023-04-18T16:40:23.582Z,102748.94
2023-04-18T16:43:27.022Z,102739.25
2023-04-18T16:46:31.366Z,102746.44
2023-04-18T16:49:33.001Z,102745.66
2023-04-18T16:52:34.586Z,102743.97
2023-04-18T16:55:36.126Z,102736.84
2023-04-18T16:58:37.674Z,102737.66
2023-04-18T17:01:39.383Z,102734.09
2023-04-18T17:04:41.065Z,102741.19
2023-04-18T17:07:45.406Z,102742.91
2023-04-18T17:10:46.957Z,102740.22
2023-04-18T17:13:50.250Z,102741.09
2023-04-18T17:16:53.492Z,102742.91
2023-04-18T17:19:55.580Z,102744.88
2023-04-18T17:22:57.442Z,102750.34
2023-04-18T17:25:59.016Z,102754.94
2023-04-18T17:29:01.346Z,102752.38
2023-04-18T17:32:03.001Z,102759.56
2023-04-18T17:35:06.473Z,102757.00
2023-04-18T17:38:10.680Z,102754.47
2023-04-18T17:41:12.593Z,102757.25
2023-04-18T17:44:14.216Z,102749.25
2023-04-18T17:47:15.827Z,102761.78
2023-04-18T17:50:17.771Z,102753.81
2023-04-18T17:53:19.645Z,102765.34
2023-04-18T17:56:22.838Z,102763.56
2023-04-18T17:59:24.697Z,102765.41
2023-04-18T18:02:28.138Z,102768.19
2023-04-18T18:05:30.449Z,102771.84
2023-04-18T18:08:32.101Z,102763.00
2023-04-18T18:11:33.683Z,102769.16
2023-04-18T18:14:35.435Z,102775.44
2023-04-18T18:17:37.152Z,102781.69
2023-04-18T18:20:42.301Z,102780.88
2023-04-18T18:23:44.025Z,102779.19
2023-04-18T18:26:46.124Z,102779.25
2023-04-18T18:29:50.332Z,102787.28
2023-04-18T18:32:53.707Z,102783.47
2023-04-18T18:35:58.437Z,102791.69
2023-04-18T18:39:00.987Z,102791.81
2023-04-18T18:42:03.626Z,102793.72
2023-04-18T18:45:07.524Z,102801.00
2023-04-18T18:48:10.775Z,102801.97
2023-04-18T18:51:13.167Z,102802.09
2023-04-18T18:54:15.085Z,102801.13
2023-04-18T18:57:16.911Z,102812.47
2023-04-18T19:00:19.702Z,102801.81
2023-04-18T19:03:21.731Z,102807.19
2023-04-18T19:06:23.632Z,102808.22
2023-04-18T19:09:25.589Z,102812.78
2023-04-18T19:12:28.759Z,102820.06
2023-04-18T19:15:34.139Z,102818.50
2023-04-18T19:18:37.172Z,102817.72
2023-04-18T19:21:40.037Z,102817.81
2023-04-18T19:24:41.743Z,102819.75
2023-04-18T19:27:43.649Z,102825.22
2023-04-18T19:30:46.974Z,102824.53
2023-04-18T19:33:50.026Z,102829.94
2023-04-18T19:36:51.795Z,102836.28
2023-04-18T19:39:54.149Z,102828.41
2023-04-18T19:42:56.394Z,102837.34
2023-04-18T19:45:59.766Z,102839.28
2023-04-18T19:49:02.933Z,102843.78
2023-04-18T19:52:06.078Z,102844.84
2023-04-18T19:55:09.109Z,102840.63
2023-04-18T19:58:11.055Z,102847.97
2023-04-18T20:01:17.648Z,102849.03
2023-04-18T20:04:19.643Z,102851.03
2023-04-18T20:07:25.536Z,102854.88
2023-04-18T20:10:29.166Z,102854.19
2023-04-18T20:13:31.385Z,102852.63
2023-04-18T20:16:33.922Z,102862.47
2023-04-18T20:19:37.221Z,102859.13
2023-04-18T20:22:40.719Z,102861.94
2023-04-18T20:25:43.935Z,102865.63
2023-04-18T20:28:45.688Z,102859.56
2023-04-18T20:31:47.424Z,102866.81
2023-04-18T20:34:49.809Z,102862.53
2023-04-18T20:37:53.029Z,102865.38
2023-04-18T20:40:58.382Z,102875.19
2023-04-18T20:44:05.843Z,102866.47
2023-04-18T20:47:08.516Z,102874.50
2023-04-18T20:50:12.046Z,102872.81
2023-04-18T20:53:14.543Z,102873.78
2023-04-18T20:56:16.739Z,102865.94
2023-04-18T20:59:19.046Z,102876.63
2023-04-18T21:02:20.817Z,102874.03
2023-04-18T21:05:23.340Z,102882.88
2023-04-18T21:08:25.589Z,102889.09
2023-04-18T21:11:27.217Z,102889.09
2023-04-18T21:14:28.754Z,102888.25
2023-04-18T21:17:30.341Z,102892.69
2023-04-18T21:20:31.940Z,102888.19
2023-04-18T21:23:33.500Z,102891.75
2023-04-18T21:26:35.279Z,102883.78
2023-04-18T21:29:36.900Z,102884.78
2023-04-18T21:32:38.442Z,102883.97
2023-04-18T21:35:40.191Z,102880.44
2023-04-18T21:38:41.790Z,102877.00
2023-04-18T21:41:44.332Z,102885.16
2023-04-18T21:44:45.899Z,102887.97
2023-04-18T21:47:47.554Z,102888.16
2023-04-18T21:50:54.847Z,102885.59
2023-04-18T21:53:56.394Z,102885.69
2023-04-18T21:56:58.315Z,102876.00
2023-04-18T21:59:59.853Z,102876.13
2023-04-18T22:03:01.559Z,102883.34
2023-04-18T22:06:03.587Z,102877.34
2023-04-18T22:09:06.140Z,102885.41
2023-04-18T22:12:08.633Z,102880.19
2023-04-18T22:15:10.547Z,102882.84
2023-04-18T22:18:14.252Z,102882.00
2023-04-18T22:21:16.211Z,102883.88
2023-04-18T22:24:19.586Z,102877.81
2023-04-18T22:27:21.183Z,102876.19
2023-04-18T22:30:22.740Z,102877.22
2023-04-18T22:33:24.648Z,102886.13
2023-04-18T22:36:27.611Z,102874.72
2023-04-18T22:39:31.125Z,102878.38
2023-04-18T22:42:33.747Z,102875.94
2023-04-18T22:45:35.550Z,102875.19
2023-04-18T22:48:37.223Z,102881.41
2023-04-18T22:51:38.786Z,102881.47
2023-04-18T22:54:40.523Z,102882.41
2023-04-18T22:57:42.328Z,102884.28
2023-04-18T23:00:43.881Z,102887.91
2023-04-18T23:03:45.554Z,102880.94
2023-04-18T23:06:47.178Z,102878.41
2023-04-18T23:09:48.740Z,102877.63
2023-04-18T23:12:50.443Z,102882.13
2023-04-18T23:15:52.062Z,102884.03
2023-04-18T23:18:53.681Z,102883.31
2023-04-18T23:21:55.527Z,102885.16
2023-04-18T23:24:57.091Z,102894.09
2023-04-18T23:27:58.645Z,102889.81
2023-04-18T23:31:00.296Z,102893.44
2023-04-18T23:34:01.872Z,102900.59
2023-04-18T23:37:03.429Z,102898.03
2023-04-18T23:40:06.818Z,102906.00
2023-04-18T23:43:08.519Z,102910.47
2023-04-18T23:46:10.407Z,102904.38
2023-04-18T23:49:12.005Z,102899.19
2023-04-18T23:52:13.804Z,102897.53
2023-04-18T23:55:15.453Z,102900.31
2023-04-18T23:58:17.100Z,102899.50
